createdAt,value
2023-01-07T00:01:25.771Z,88.27
2023-01-07T00:03:54.406Z,88.12
2023-01-07T00:06:28.308Z,87.75
2023-01-07T00:08:57.050Z,87.28
2023-01-07T00:11:27.883Z,87.65
2023-01-07T00:13:56.785Z,87.87
2023-01-07T00:16:27.551Z,87.52
2023-01-07T00:18:56.679Z,88.15
2023-01-07T00:21:25.498Z,87.30
2023-01-07T00:23:58.554Z,88.10
2023-01-07T00:26:29.606Z,87.78
2023-01-07T00:28:57.442Z,87.44
2023-01-07T00:31:28.632Z,87.86
2023-01-07T00:33:55.720Z,86.80
2023-01-07T00:36:26.515Z,86.89
2023-01-07T00:39:19.342Z,86.77
2023-01-07T00:42:06.447Z,86.79
2023-01-07T00:44:34.086Z,87.24
2023-01-07T00:47:01.622Z,87.85
2023-01-07T00:49:28.568Z,87.69
2023-01-07T00:51:55.522Z,86.92
2023-01-07T00:54:22.619Z,87.14
2023-01-07T00:56:49.543Z,87.60
2023-01-07T00:59:16.403Z,87.19
2023-01-07T01:01:43.451Z,88.33
2023-01-07T01:04:10.423Z,87.98
2023-01-07T01:06:37.340Z,88.12
2023-01-07T01:09:04.375Z,88.08
2023-01-07T01:11:31.225Z,88.06
2023-01-07T01:13:58.035Z,87.91
2023-01-07T01:16:25.185Z,88.04
2023-01-07T01:18:52.062Z,88.42
2023-01-07T01:21:19.195Z,87.75
2023-01-07T01:23:46.293Z,87.63
2023-01-07T01:26:16.491Z,87.55
2023-01-07T01:28:44.321Z,88.17
2023-01-07T01:31:12.190Z,87.63
2023-01-07T01:33:39.260Z,87.66
2023-01-07T01:36:10.071Z,87.40
2023-01-07T01:38:37.689Z,87.75
2023-01-07T01:41:05.870Z,87.09
2023-01-07T01:43:40.427Z,87.46
2023-01-07T01:46:38.189Z,87.71
2023-01-07T01:49:22.176Z,87.83
2023-01-07T01:52:19.605Z,87.99
2023-01-07T01:54:53.461Z,87.89
2023-01-07T01:57:22.685Z,88.13
2023-01-07T01:59:51.951Z,88.23
2023-01-07T02:02:28.208Z,88.10
2023-01-07T02:04:56.381Z,88.70
2023-01-07T02:07:23.344Z,88.25
2023-01-07T02:10:10.307Z,88.75
2023-01-07T02:13:03.032Z,87.85
2023-01-07T02:15:37.307Z,87.88
2023-01-07T02:18:12.305Z,88.01
2023-01-07T02:20:41.686Z,87.83
2023-01-07T02:23:42.412Z,87.92
2023-01-07T02:26:36.890Z,87.76
2023-01-07T02:29:34.771Z,88.77
2023-01-07T02:32:42.315Z,88.07
2023-01-07T02:35:28.715Z,88.31
2023-01-07T02:38:40.749Z,88.29
2023-01-07T02:41:36.360Z,87.95
2023-01-07T02:44:09.751Z,88.30
2023-01-07T02:46:57.006Z,88.76
2023-01-07T02:49:24.003Z,88.45
2023-01-07T02:51:51.867Z,88.07
2023-01-07T02:54:26.331Z,88.52
2023-01-07T02:57:21.182Z,88.93
2023-01-07T03:00:28.425Z,89.11
2023-01-07T03:03:49.473Z,89.18
2023-01-07T03:06:48.959Z,88.57
2023-01-07T03:09:55.645Z,88.83
2023-01-07T03:12:41.344Z,88.48
2023-01-07T03:15:18.526Z,88.44
2023-01-07T03:18:08.285Z,88.88
2023-01-07T03:20:38.944Z,88.93
2023-01-07T03:23:10.309Z,88.83
2023-01-07T03:25:44.248Z,88.37
2023-01-07T03:28:14.524Z,88.74
2023-01-07T03:30:42.180Z,87.94
2023-01-07T03:33:58.194Z,88.16
2023-01-07T03:36:33.046Z,88.04
2023-01-07T03:39:01.642Z,88.07
2023-01-07T03:41:47.280Z,88.56
2023-01-07T03:44:14.185Z,88.48
2023-01-07T03:46:41.066Z,88.86
2023-01-07T03:49:08.213Z,88.67
2023-01-07T03:51:35.113Z,89.56
2023-01-07T03:54:01.897Z,89.24
2023-01-07T03:56:28.733Z,88.79
2023-01-07T03:58:55.631Z,88.74
2023-01-07T04:01:22.748Z,88.32
2023-01-07T04:03:49.691Z,88.13
2023-01-07T04:06:16.604Z,88.56
2023-01-07T04:08:43.496Z,88.91
2023-01-07T04:11:10.375Z,88.29
2023-01-07T04:13:37.224Z,89.33
2023-01-07T04:16:04.511Z,89.15
2023-01-07T04:18:31.391Z,89.06
2023-01-07T04:20:58.222Z,89.12
2023-01-07T04:23:25.094Z,89.51
2023-01-07T04:25:51.903Z,90.00
2023-01-07T04:28:18.744Z,90.16
2023-01-07T04:30:45.645Z,89.40
2023-01-07T04:33:12.546Z,89.31
2023-01-07T04:35:40.253Z,89.51
2023-01-07T04:38:07.666Z,89.23
2023-01-07T04:40:34.533Z,89.30
2023-01-07T04:43:01.379Z,89.52
2023-01-07T04:45:28.181Z,89.95
2023-01-07T04:47:56.429Z,89.24
2023-01-07T04:50:24.210Z,90.30
2023-01-07T04:52:51.385Z,90.16
2023-01-07T04:55:18.264Z,90.47
2023-01-07T04:57:45.237Z,90.29
2023-01-07T05:00:13.057Z,90.20
2023-01-07T05:02:40.025Z,89.87
2023-01-07T05:05:07.287Z,90.24
2023-01-07T05:07:34.167Z,90.08
2023-01-07T05:10:01.109Z,89.58
2023-01-07T05:12:27.935Z,90.40
2023-01-07T05:14:54.798Z,90.32
2023-01-07T05:17:21.628Z,89.97
2023-01-07T05:19:48.474Z,90.43
2023-01-07T05:22:15.393Z,90.63
2023-01-07T05:24:42.241Z,90.75
2023-01-07T05:27:09.249Z,90.97
2023-01-07T05:29:36.185Z,91.30
2023-01-07T05:32:03.083Z,90.82
2023-01-07T05:34:30.651Z,91.10
2023-01-07T05:36:57.750Z,91.10
2023-01-07T05:39:24.652Z,91.59
2023-01-07T05:41:51.561Z,91.11
2023-01-07T05:44:18.384Z,91.33
2023-01-07T05:46:45.221Z,91.85
2023-01-07T05:49:13.155Z,91.20
2023-01-07T05:51:40.013Z,91.59
2023-01-07T05:54:07.348Z,91.80
2023-01-07T05:56:34.314Z,91.88
2023-01-07T05:59:01.532Z,92.26
2023-01-07T06:01:28.549Z,92.71
2023-01-07T06:03:55.501Z,92.34
2023-01-07T06:06:22.363Z,92.12
2023-01-07T06:08:49.259Z,92.85
2023-01-07T06:11:16.164Z,92.47
2023-01-07T06:13:43.049Z,92.29
2023-01-07T06:16:10.757Z,92.78
2023-01-07T06:18:37.596Z,93.07
2023-01-07T06:21:04.808Z,92.70
2023-01-07T06:23:31.675Z,92.96
2023-01-07T06:25:58.620Z,92.44
2023-01-07T06:28:25.571Z,92.80
2023-01-07T06:30:52.425Z,92.88
2023-01-07T06:33:19.380Z,92.69
2023-01-07T06:35:46.665Z,92.60
2023-01-07T06:38:13.666Z,93.13
2023-01-07T06:40:40.714Z,93.03
2023-01-07T06:43:07.643Z,92.55
2023-01-07T06:45:34.528Z,92.49
2023-01-07T06:48:01.354Z,92.07
2023-01-07T06:50:28.258Z,91.85
2023-01-07T06:52:56.795Z,92.13
2023-01-07T06:55:23.709Z,92.05
2023-01-07T06:57:50.596Z,92.30
2023-01-07T07:00:18.641Z,92.46
2023-01-07T07:02:46.084Z,92.03
2023-01-07T07:05:12.980Z,91.97
2023-01-07T07:07:39.843Z,92.05
2023-01-07T07:10:08.335Z,91.90
2023-01-07T07:12:36.661Z,91.94
2023-01-07T07:15:05.675Z,92.33
2023-01-07T07:17:32.614Z,91.59
2023-01-07T07:19:59.515Z,92.01
2023-01-07T07:22:26.427Z,92.40
2023-01-07T07:24:53.258Z,91.87
2023-01-07T07:27:20.168Z,91.87
2023-01-07T07:29:47.043Z,92.21
2023-01-07T07:32:13.919Z,92.52
2023-01-07T07:34:41.059Z,92.06
2023-01-07T07:37:07.934Z,91.39
2023-01-07T07:39:34.928Z,91.30
2023-01-07T07:42:05.624Z,91.41
2023-01-07T07:44:32.624Z,90.72
2023-01-07T07:46:59.485Z,90.62
2023-01-07T07:49:26.431Z,90.32
2023-01-07T07:51:53.518Z,91.06
2023-01-07T07:54:21.813Z,91.07
2023-01-07T07:56:50.875Z,90.75
2023-01-07T07:59:17.773Z,90.32
2023-01-07T08:01:44.786Z,90.40
2023-01-07T08:04:11.739Z,90.02
2023-01-07T08:06:38.569Z,90.33
2023-01-07T08:09:05.412Z,90.19
2023-01-07T08:11:32.339Z,90.19
2023-01-07T08:13:59.218Z,89.96
2023-01-07T08:16:26.641Z,89.82
2023-01-07T08:18:53.592Z,89.43
2023-01-07T08:21:20.609Z,89.20
2023-01-07T08:23:47.472Z,89.49
2023-01-07T08:26:14.298Z,89.22
2023-01-07T08:28:41.343Z,89.48
2023-01-07T08:31:08.597Z,88.69
2023-01-07T08:33:38.518Z,88.91
2023-01-07T08:36:18.108Z,87.85
2023-01-07T08:38:52.220Z,87.64
2023-01-07T08:41:23.463Z,87.30
2023-01-07T08:43:50.546Z,86.99
2023-01-07T08:46:17.539Z,86.96
2023-01-07T08:48:44.468Z,86.63
2023-01-07T08:51:11.273Z,86.51
2023-01-07T08:53:38.115Z,85.90
2023-01-07T08:56:05.058Z,86.20
2023-01-07T08:58:31.894Z,86.39
2023-01-07T09:01:05.596Z,85.29
2023-01-07T09:03:33.130Z,85.29
2023-01-07T09:06:00.136Z,84.74
2023-01-07T09:08:27.052Z,84.84
2023-01-07T09:10:53.856Z,85.02
2023-01-07T09:13:20.725Z,84.27
2023-01-07T09:15:47.635Z,84.45
2023-01-07T09:18:14.508Z,83.99
2023-01-07T09:20:41.331Z,82.82
2023-01-07T09:23:08.167Z,83.20
2023-01-07T09:25:35.073Z,82.65
2023-01-07T09:28:01.961Z,82.87
2023-01-07T09:30:28.800Z,81.64
2023-01-07T09:32:55.650Z,80.71
2023-01-07T09:35:22.601Z,79.73
2023-01-07T09:37:51.599Z,79.36
2023-01-07T09:40:35.031Z,77.76
2023-01-07T09:43:59.791Z,77.24
2023-01-07T09:46:18.230Z,76.39
2023-01-07T09:48:51.687Z,75.58
2023-01-07T09:52:07.814Z,75.22
2023-01-07T09:54:37.569Z,74.58
2023-01-07T09:57:05.086Z,74.29
2023-01-07T09:59:32.384Z,73.96
2023-01-07T10:02:22.374Z,72.63
2023-01-07T10:05:02.597Z,72.76
2023-01-07T10:08:30.836Z,72.87
2023-01-07T10:11:03.492Z,72.34
2023-01-07T10:13:52.747Z,72.43
2023-01-07T10:17:07.496Z,72.15
2023-01-07T10:19:50.845Z,72.19
2023-01-07T10:22:29.817Z,72.55
2023-01-07T10:25:14.857Z,72.35
2023-01-07T10:27:46.277Z,72.28
2023-01-07T10:30:27.151Z,72.35
2023-01-07T10:33:11.375Z,72.91
2023-01-07T10:35:41.126Z,72.03
2023-01-07T10:38:19.904Z,71.11
2023-01-07T10:40:46.624Z,71.07
2023-01-07T10:43:48.344Z,71.43
2023-01-07T10:46:30.114Z,71.82
2023-01-07T10:49:37.603Z,72.41
2023-01-07T10:52:31.503Z,71.86
2023-01-07T10:55:21.966Z,71.78
2023-01-07T10:57:49.271Z,71.89
2023-01-07T11:00:17.826Z,71.69
2023-01-07T11:02:59.050Z,71.23
2023-01-07T11:05:37.623Z,71.86
2023-01-07T11:08:12.910Z,71.13
2023-01-07T11:10:40.075Z,72.02
2023-01-07T11:13:19.716Z,71.33
2023-01-07T11:15:56.143Z,71.96
2023-01-07T11:18:52.539Z,72.92
2023-01-07T11:21:44.682Z,72.71
2023-01-07T11:24:27.076Z,73.23
2023-01-07T11:27:20.118Z,72.27
2023-01-07T11:30:04.604Z,72.22
2023-01-07T11:32:38.467Z,72.90
2023-01-07T11:35:23.095Z,72.45
2023-01-07T11:37:50.486Z,71.56
2023-01-07T11:40:20.979Z,71.82
2023-01-07T11:43:02.130Z,73.68
2023-01-07T11:45:36.688Z,72.40
2023-01-07T11:48:22.202Z,71.83
2023-01-07T11:50:57.822Z,72.16
2023-01-07T11:53:50.439Z,72.04
2023-01-07T11:56:33.531Z,72.23
2023-01-07T11:59:13.320Z,72.61
2023-01-07T12:01:52.573Z,71.40
2023-01-07T12:04:27.615Z,72.55
2023-01-07T12:07:02.264Z,73.10
2023-01-07T12:09:31.991Z,72.21
2023-01-07T12:12:27.844Z,72.66
2023-01-07T12:14:55.803Z,72.82
2023-01-07T12:17:25.207Z,71.69
2023-01-07T12:20:24.737Z,71.48
2023-01-07T12:23:38.672Z,71.54
2023-01-07T12:26:21.075Z,71.54
2023-01-07T12:29:07.481Z,71.85
2023-01-07T12:31:44.656Z,72.15
2023-01-07T12:34:41.474Z,71.76
2023-01-07T12:37:36.042Z,71.30
2023-01-07T12:40:16.213Z,71.05
2023-01-07T12:42:51.108Z,71.61
2023-01-07T12:46:00.247Z,71.81
2023-01-07T12:48:38.997Z,71.38
2023-01-07T12:51:19.932Z,70.43
2023-01-07T12:54:19.919Z,70.27
2023-01-07T12:57:07.384Z,70.01
2023-01-07T12:59:46.544Z,70.49
2023-01-07T13:02:35.782Z,70.36
2023-01-07T13:05:16.570Z,70.49
2023-01-07T13:08:05.886Z,69.78
2023-01-07T13:10:43.272Z,70.37
2023-01-07T13:13:21.279Z,70.17
2023-01-07T13:15:49.282Z,70.41
2023-01-07T13:18:21.154Z,69.76
2023-01-07T13:21:14.264Z,69.27
2023-01-07T13:23:56.432Z,70.37
2023-01-07T13:26:45.109Z,69.97
2023-01-07T13:29:29.813Z,70.45
2023-01-07T13:32:33.859Z,69.54
2023-01-07T13:35:37.058Z,69.56
2023-01-07T13:38:12.844Z,70.41
2023-01-07T13:41:18.977Z,69.58
2023-01-07T13:44:07.364Z,69.55
2023-01-07T13:46:39.517Z,69.22
2023-01-07T13:49:06.645Z,69.78
2023-01-07T13:51:37.021Z,69.43
2023-01-07T13:54:04.516Z,70.13
2023-01-07T13:56:36.221Z,68.80
2023-01-07T13:59:03.576Z,69.70
2023-01-07T14:01:33.245Z,69.31
2023-01-07T14:04:08.567Z,69.14
2023-01-07T14:06:43.807Z,69.86
2023-01-07T14:09:15.916Z,69.29
2023-01-07T14:12:04.696Z,70.25
2023-01-07T14:14:38.163Z,71.10
2023-01-07T14:17:26.154Z,69.05
2023-01-07T14:20:21.136Z,69.73
2023-01-07T14:23:05.661Z,69.79
2023-01-07T14:25:58.330Z,70.59
2023-01-07T14:28:57.703Z,70.89
2023-01-07T14:31:28.430Z,70.90
2023-01-07T14:34:20.076Z,71.18
2023-01-07T14:37:02.349Z,71.67
2023-01-07T14:39:45.870Z,71.42
2023-01-07T14:42:18.853Z,71.31
2023-01-07T14:44:50.788Z,72.52
2023-01-07T14:47:43.885Z,73.07
2023-01-07T14:50:51.119Z,73.15
2023-01-07T14:54:00.196Z,72.69
2023-01-07T14:56:39.855Z,72.60
2023-01-07T14:59:46.178Z,72.15
2023-01-07T15:02:34.671Z,72.46
2023-01-07T15:05:45.023Z,73.12
2023-01-07T15:08:39.206Z,72.66
2023-01-07T15:11:31.498Z,72.57
2023-01-07T15:14:48.488Z,72.46
2023-01-07T15:17:16.520Z,73.42
2023-01-07T15:19:44.322Z,73.12
2023-01-07T15:22:53.792Z,73.80
2023-01-07T15:25:33.065Z,72.61
2023-01-07T15:28:15.869Z,72.61
2023-01-07T15:31:05.208Z,74.25
2023-01-07T15:34:15.213Z,74.60
2023-01-07T15:36:51.982Z,73.42
2023-01-07T15:39:31.150Z,74.70
2023-01-07T15:41:58.707Z,73.97
2023-01-07T15:44:40.465Z,74.62
2023-01-07T15:47:34.520Z,75.42
2023-01-07T15:50:28.291Z,75.49
2023-01-07T15:53:16.719Z,75.31
2023-01-07T15:55:51.879Z,75.44
2023-01-07T15:58:39.329Z,76.41
2023-01-07T16:01:08.405Z,76.24
2023-01-07T16:03:39.040Z,76.78
2023-01-07T16:06:35.887Z,77.47
2023-01-07T16:09:18.819Z,77.38
2023-01-07T16:11:45.880Z,77.59
2023-01-07T16:14:25.750Z,76.93
2023-01-07T16:17:25.788Z,77.28
2023-01-07T16:20:30.236Z,77.32
2023-01-07T16:23:19.220Z,77.92
2023-01-07T16:26:04.950Z,78.63
2023-01-07T16:28:52.059Z,77.87
2023-01-07T16:31:23.268Z,78.55
2023-01-07T16:33:53.349Z,78.23
2023-01-07T16:36:25.276Z,78.46
2023-01-07T16:38:56.939Z,78.78
2023-01-07T16:41:26.902Z,78.82
2023-01-07T16:44:00.853Z,80.67
2023-01-07T16:46:35.835Z,80.41
2023-01-07T16:49:11.362Z,78.49
2023-01-07T16:52:02.332Z,79.06
2023-01-07T16:54:32.336Z,78.60
2023-01-07T16:57:12.597Z,78.88
2023-01-07T16:59:46.094Z,79.26
2023-01-07T17:02:43.324Z,79.26
2023-01-07T17:05:18.455Z,78.86
2023-01-07T17:08:02.379Z,79.26
2023-01-07T17:10:40.695Z,79.79
2023-01-07T17:13:32.960Z,79.78
2023-01-07T17:16:29.194Z,79.42
2023-01-07T17:18:58.182Z,79.69
2023-01-07T17:21:43.619Z,79.33
2023-01-07T17:24:46.204Z,78.79
2023-01-07T17:27:27.463Z,78.61
2023-01-07T17:29:54.785Z,78.91
2023-01-07T17:32:24.101Z,78.81
2023-01-07T17:34:51.068Z,78.57
2023-01-07T17:37:18.214Z,78.84
2023-01-07T17:39:45.135Z,79.48
2023-01-07T17:42:48.024Z,79.38
2023-01-07T17:45:18.810Z,78.71
2023-01-07T17:47:47.815Z,79.21
2023-01-07T17:50:16.701Z,78.67
2023-01-07T17:52:50.481Z,78.66
2023-01-07T17:55:31.090Z,78.87
2023-01-07T17:57:58.334Z,78.37
2023-01-07T18:00:27.875Z,78.62
2023-01-07T18:02:54.829Z,78.61
2023-01-07T18:05:24.688Z,78.44
2023-01-07T18:07:53.027Z,77.93
2023-01-07T18:10:28.915Z,78.72
2023-01-07T18:12:55.836Z,77.97
2023-01-07T18:15:27.853Z,77.88
2023-01-07T18:17:54.735Z,77.88
2023-01-07T18:20:23.033Z,77.54
2023-01-07T18:22:50.471Z,77.71
2023-01-07T18:25:22.469Z,77.82
2023-01-07T18:27:53.295Z,78.34
2023-01-07T18:30:22.255Z,78.07
2023-01-07T18:32:52.842Z,78.35
2023-01-07T18:35:20.068Z,77.98
2023-01-07T18:37:50.781Z,78.23
2023-01-07T18:40:18.381Z,79.74
2023-01-07T18:42:45.442Z,78.56
2023-01-07T18:45:13.063Z,78.25
2023-01-07T18:47:39.979Z,77.91
2023-01-07T18:50:08.352Z,78.03
2023-01-07T18:52:38.317Z,78.04
2023-01-07T18:55:06.292Z,77.99
2023-01-07T18:57:33.203Z,78.14
2023-01-07T19:00:00.121Z,78.80
2023-01-07T19:02:26.970Z,78.25
2023-01-07T19:04:53.801Z,77.94
2023-01-07T19:07:21.702Z,78.43
2023-01-07T19:09:48.784Z,78.38
2023-01-07T19:12:15.649Z,77.85
2023-01-07T19:14:42.637Z,78.59
2023-01-07T19:17:09.603Z,78.89
2023-01-07T19:19:47.465Z,78.62
2023-01-07T19:22:16.097Z,78.06
2023-01-07T19:24:43.349Z,78.03
2023-01-07T19:27:10.822Z,78.26
2023-01-07T19:29:37.899Z,78.14
2023-01-07T19:32:05.131Z,77.97
2023-01-07T19:34:32.133Z,77.88
2023-01-07T19:36:58.970Z,77.71
2023-01-07T19:39:26.078Z,77.20
2023-01-07T19:41:52.885Z,76.83
2023-01-07T19:44:19.789Z,76.62
2023-01-07T19:46:46.828Z,77.54
2023-01-07T19:49:13.675Z,77.68
2023-01-07T19:51:42.324Z,77.68
2023-01-07T19:54:15.894Z,77.23
2023-01-07T19:56:43.596Z,77.02
2023-01-07T19:59:10.807Z,77.69
2023-01-07T20:01:38.801Z,76.77
2023-01-07T20:04:08.059Z,77.23
2023-01-07T20:06:41.151Z,76.55
2023-01-07T20:09:12.193Z,76.68
2023-01-07T20:11:40.487Z,76.62
2023-01-07T20:14:07.723Z,76.76
2023-01-07T20:16:36.743Z,77.04
2023-01-07T20:19:04.723Z,77.39
2023-01-07T20:21:32.406Z,76.85
2023-01-07T20:23:59.475Z,77.12
2023-01-07T20:26:32.403Z,77.17
2023-01-07T20:29:00.877Z,77.47
2023-01-07T20:31:30.035Z,77.96
2023-01-07T20:33:57.645Z,78.16
2023-01-07T20:36:29.014Z,77.94
2023-01-07T20:38:55.927Z,77.78
2023-01-07T20:41:26.003Z,78.38
2023-01-07T20:43:58.961Z,78.25
2023-01-07T20:46:28.317Z,78.60
2023-01-07T20:48:56.264Z,78.66
2023-01-07T20:51:23.400Z,78.46
2023-01-07T20:53:50.481Z,78.74
2023-01-07T20:56:21.123Z,78.79
2023-01-07T20:58:49.091Z,78.58
2023-01-07T21:01:19.938Z,79.06
2023-01-07T21:03:47.105Z,78.75
2023-01-07T21:06:19.748Z,78.98
2023-01-07T21:08:47.889Z,78.89
2023-01-07T21:11:18.924Z,79.23
2023-01-07T21:13:46.700Z,78.59
2023-01-07T21:16:15.934Z,78.40
2023-01-07T21:18:43.297Z,78.71
2023-01-07T21:21:17.719Z,78.59
2023-01-07T21:23:48.741Z,78.79
2023-01-07T21:26:16.510Z,78.58
2023-01-07T21:28:44.383Z,78.46
2023-01-07T21:31:15.357Z,78.26
2023-01-07T21:33:43.384Z,78.61
2023-01-07T21:36:19.554Z,78.31
2023-01-07T21:38:51.285Z,78.34
2023-01-07T21:41:18.142Z,78.63
2023-01-07T21:43:45.262Z,78.48
2023-01-07T21:46:13.301Z,78.85
2023-01-07T21:48:43.700Z,79.04
2023-01-07T21:51:26.920Z,78.74
2023-01-07T21:53:58.798Z,79.01
2023-01-07T21:56:28.738Z,79.02
2023-01-07T21:58:55.676Z,79.21
2023-01-07T22:01:28.157Z,79.43
2023-01-07T22:03:58.546Z,79.04
2023-01-07T22:06:36.596Z,79.63
2023-01-07T22:09:07.482Z,79.96
2023-01-07T22:11:38.507Z,79.94
2023-01-07T22:14:05.420Z,79.67
2023-01-07T22:16:32.771Z,81.58
2023-01-07T22:19:00.160Z,80.76
2023-01-07T22:21:27.444Z,79.67
2023-01-07T22:23:54.315Z,79.07
2023-01-07T22:26:21.915Z,79.74
2023-01-07T22:28:55.473Z,79.73
2023-01-07T22:31:28.821Z,79.87
2023-01-07T22:33:56.308Z,80.32
2023-01-07T22:36:35.105Z,79.12
2023-01-07T22:39:10.610Z,79.24
2023-01-07T22:41:37.777Z,79.32
2023-01-07T22:44:13.493Z,79.74
2023-01-07T22:46:45.584Z,79.23
2023-01-07T22:49:13.559Z,78.74
2023-01-07T22:51:45.488Z,78.63
2023-01-07T22:54:13.763Z,78.87
2023-01-07T22:56:41.762Z,78.74
2023-01-07T22:59:08.834Z,79.00
2023-01-07T23:01:37.650Z,78.98
2023-01-07T23:04:05.189Z,78.89
2023-01-07T23:06:32.094Z,78.94
2023-01-07T23:08:59.160Z,79.18
2023-01-07T23:11:44.741Z,78.78
2023-01-07T23:14:11.657Z,78.84
2023-01-07T23:16:38.599Z,78.52
2023-01-07T23:19:05.823Z,78.92
2023-01-07T23:21:33.048Z,78.70
2023-01-07T23:24:00.229Z,79.44
2023-01-07T23:26:27.050Z,78.98
2023-01-07T23:28:53.898Z,78.42
2023-01-07T23:31:20.874Z,78.35
2023-01-07T23:33:47.812Z,79.11
2023-01-07T23:36:14.786Z,78.82
2023-01-07T23:38:41.753Z,78.12
2023-01-07T23:41:10.993Z,77.82
2023-01-07T23:43:38.568Z,77.71
2023-01-07T23:46:07.609Z,77.33
2023-01-07T23:48:36.769Z,77.37
2023-01-07T23:51:06.239Z,77.93
2023-01-07T23:53:33.440Z,78.15
2023-01-07T23:56:00.602Z,78.32
2023-01-07T23:58:28.523Z,77.25
